This is the latest recevied weather packets stored in our database for station/object KC0UFP. If no packets are shown the sender has not sent any weather packets the latest 10 day(s).
| Time | Temp. | Humidity | Pressure | Rain* | Wind** | Luminosity | Snow |
|---|---|---|---|---|---|---|---|
| 1777577464 | 16.67° C | 43% | 1017 hPa | 0 mm | - | 880 W/m² | - |
| 1777577161 | 16.67° C | 41% | 1017.2 hPa | 0 mm | - | 678 W/m² | - |
| 1777576858 | 16.67° C | 41% | 1017.1 hPa | 0 mm | - | 622 W/m² | - |
| 1777576556 | 16.67° C | 42% | 1016.9 hPa | 0 mm | - | 671 W/m² | - |
| 1777576253 | 16.67° C | 41% | 1017.2 hPa | 0 mm | - | 704 W/m² | - |
| 1777575949 | 16.67° C | 43% | 1017 hPa | 0 mm | - | 762 W/m² | - |
| 1777575342 | 16.67° C | 41% | 1017.4 hPa | 0 mm | - | 753 W/m² | - |
| 1777575038 | 16.67° C | 44% | 1017.3 hPa | 0 mm | - | 760 W/m² | - |
| 1777574127 | 16.67° C | 45% | 1017.4 hPa | 0 mm | - | 704 W/m² | - |
| 1777573823 | 16.67° C | 43% | 1017.9 hPa | 0 mm | - | 763 W/m² | - |
| 1777573518 | 16.67° C | 41% | 1017.7 hPa | 0 mm | - | 763 W/m² | - |
| 1777572911 | 16.67° C | 44% | 1017.7 hPa | 0 mm | - | 816 W/m² | - |
| 1777571997 | 16.11° C | 48% | 1018 hPa | 0 mm | - | 902 W/m² | - |
| 1777570483 | 16.67° C | 42% | 1018.6 hPa | 0 mm | - | 805 W/m² | - |
| 1777570179 | 16.67° C | 42% | 1018.3 hPa | 0 mm | - | 861 W/m² | - |
| 1777569268 | 16.11° C | 49% | 1018.1 hPa | 0 mm | - | 969 W/m² | - |
| 1777568965 | 16.67° C | 47% | 1018 hPa | 0 mm | - | 985 W/m² | - |
| 1777568661 | 15.56° C | 48% | 1018.2 hPa | 0 mm | - | 1030 W/m² | - |
| 1777568359 | 15.56° C | 52% | 1018 hPa | 0 mm | - | 922 W/m² | - |
| 1777567752 | 15.56° C | 53% | 1018.1 hPa | 0 mm | - | 1047 W/m² | - |
| 1777566542 | 15.56° C | 40% | 1018.3 hPa | 0 mm | - | 831 W/m² | - |
| 1777566239 | 15.56° C | 49% | 1018.6 hPa | 0 mm | - | 971 W/m² | - |
| 1777565631 | 15.56° C | 52% | 1018.9 hPa | 0 mm | - | 864 W/m² | - |
| 1777565024 | 15° C | 52% | 1018.8 hPa | 0 mm | - | 599 W/m² | - |
| 1777564720 | 15° C | 46% | 1018.7 hPa | 0 mm | - | 587 W/m² | - |
* Rain latest hour (hover to see other rain measurements)
** Current wind speed in m/s (hover to see current wind gust speed)